< < Back
Terminal Aerodrome Forecast


Current Version              Previous Versions:   1  2  3  4  5  6  7  8  9  

Terminal Aerodrome Forecast

162
FTUS44 KBMX 040500
TAFMGM
TAF
KMGM 040532Z 0406/0506 18005KT P6SM OVC007
     FM041700 20010KT 6SM BR OVC020
     FM042000 21008KT P6SM OVC050
     FM050300 18007KT P6SM OVC015=



Latest METAR

409
SAUS80 KWBC 050000 RRA
MTRMGM
METAR KMGM 042353Z 18009G19KT 10SM FEW037 BKN080 OVC100 24/17 A2991 RMK
AO2 SLP126 T02440172 10272 20244 55005


USA.gov is the U.S. government's official web portal to all federal, state and local government web resources and services.